sensor_id;sensor_type;location;lat;lon;timestamp;P1;durP1;ratioP1;P2;durP2;ratioP2
58621;SDS011;44389;51.578;5.456;2023-05-07T00:00:07;15.38;;;13.88;;
58621;SDS011;44389;51.578;5.456;2023-05-07T00:02:33;15.82;;;14.23;;
58621;SDS011;44389;51.578;5.456;2023-05-07T00:04:58;16.67;;;14.98;;
58621;SDS011;44389;51.578;5.456;2023-05-07T00:07:24;15.38;;;13.80;;
58621;SDS011;44389;51.578;5.456;2023-05-07T00:09:49;15.55;;;14.15;;
58621;SDS011;44389;51.578;5.456;2023-05-07T00:12:14;15.20;;;13.70;;
58621;SDS011;44389;51.578;5.456;2023-05-07T00:14:40;15.20;;;13.60;;
58621;SDS011;44389;51.578;5.456;2023-05-07T00:17:07;14.93;;;13.45;;
58621;SDS011;44389;51.578;5.456;2023-05-07T00:19:32;15.95;;;13.57;;
58621;SDS011;44389;51.578;5.456;2023-05-07T00:21:57;15.00;;;13.27;;
58621;SDS011;44389;51.578;5.456;2023-05-07T00:24:23;15.55;;;13.55;;
58621;SDS011;44389;51.578;5.456;2023-05-07T00:26:49;15.00;;;13.57;;
58621;SDS011;44389;51.578;5.456;2023-05-07T00:29:15;18.48;;;14.40;;
58621;SDS011;44389;51.578;5.456;2023-05-07T00:31:40;17.17;;;14.40;;
58621;SDS011;44389;51.578;5.456;2023-05-07T00:34:05;15.02;;;13.45;;
58621;SDS011;44389;51.578;5.456;2023-05-07T00:36:31;14.98;;;13.57;;
58621;SDS011;44389;51.578;5.456;2023-05-07T00:38:58;16.73;;;14.20;;
58621;SDS011;44389;51.578;5.456;2023-05-07T00:41:25;16.70;;;14.93;;
58621;SDS011;44389;51.578;5.456;2023-05-07T00:43:51;16.63;;;14.93;;
58621;SDS011;44389;51.578;5.456;2023-05-07T00:46:21;21.00;;;16.08;;
58621;SDS011;44389;51.578;5.456;2023-05-07T00:48:47;19.58;;;16.38;;
58621;SDS011;44389;51.578;5.456;2023-05-07T00:51:13;17.98;;;15.43;;
58621;SDS011;44389;51.578;5.456;2023-05-07T00:53:39;19.08;;;15.75;;
58621;SDS011;44389;51.578;5.456;2023-05-07T00:56:04;19.38;;;17.38;;
58621;SDS011;44389;51.578;5.456;2023-05-07T00:58:31;17.52;;;15.57;;
58621;SDS011;44389;51.578;5.456;2023-05-07T01:00:57;17.98;;;16.05;;
58621;SDS011;44389;51.578;5.456;2023-05-07T01:03:23;19.33;;;17.23;;
58621;SDS011;44389;51.578;5.456;2023-05-07T01:05:48;22.95;;;16.65;;
58621;SDS011;44389;51.578;5.456;2023-05-07T01:08:14;19.80;;;16.85;;
58621;SDS011;44389;51.578;5.456;2023-05-07T01:10:41;19.17;;;16.73;;
58621;SDS011;44389;51.578;5.456;2023-05-07T01:13:08;19.77;;;16.30;;
58621;SDS011;44389;51.578;5.456;2023-05-07T01:15:35;19.88;;;17.80;;
58621;SDS011;44389;51.578;5.456;2023-05-07T01:18:01;19.98;;;17.45;;
58621;SDS011;44389;51.578;5.456;2023-05-07T01:20:26;19.00;;;17.10;;
58621;SDS011;44389;51.578;5.456;2023-05-07T01:22:53;21.27;;;18.15;;
58621;SDS011;44389;51.578;5.456;2023-05-07T01:25:19;21.58;;;19.10;;
58621;SDS011;44389;51.578;5.456;2023-05-07T01:27:44;21.25;;;18.90;;
58621;SDS011;44389;51.578;5.456;2023-05-07T01:30:10;21.70;;;19.40;;
58621;SDS011;44389;51.578;5.456;2023-05-07T01:33:36;23.90;;;19.40;;
58621;SDS011;44389;51.578;5.456;2023-05-07T01:35:37;21.42;;;18.92;;
58621;SDS011;44389;51.578;5.456;2023-05-07T01:38:05;22.02;;;19.52;;
58621;SDS011;44389;51.578;5.456;2023-05-07T01:40:31;23.75;;;19.98;;
58621;SDS011;44389;51.578;5.456;2023-05-07T01:42:59;22.17;;;19.88;;
58621;SDS011;44389;51.578;5.456;2023-05-07T01:45:25;22.17;;;19.30;;
58621;SDS011;44389;51.578;5.456;2023-05-07T01:47:50;21.73;;;18.98;;
58621;SDS011;44389;51.578;5.456;2023-05-07T01:50:18;21.48;;;19.23;;
58621;SDS011;44389;51.578;5.456;2023-05-07T01:52:44;22.77;;;19.23;;
58621;SDS011;44389;51.578;5.456;2023-05-07T01:55:09;22.67;;;20.27;;
58621;SDS011;44389;51.578;5.456;2023-05-07T01:57:35;24.20;;;21.42;;
58621;SDS011;44389;51.578;5.456;2023-05-07T02:00:00;25.08;;;22.25;;
58621;SDS011;44389;51.578;5.456;2023-05-07T02:02:27;22.73;;;20.35;;
58621;SDS011;44389;51.578;5.456;2023-05-07T02:04:53;23.05;;;20.38;;
58621;SDS011;44389;51.578;5.456;2023-05-07T02:07:18;23.63;;;21.23;;
58621;SDS011;44389;51.578;5.456;2023-05-07T02:09:43;24.08;;;21.55;;
58621;SDS011;44389;51.578;5.456;2023-05-07T02:12:08;25.33;;;22.63;;
58621;SDS011;44389;51.578;5.456;2023-05-07T02:14:34;25.13;;;22.52;;
58621;SDS011;44389;51.578;5.456;2023-05-07T02:16:59;25.80;;;23.08;;
58621;SDS011;44389;51.578;5.456;2023-05-07T02:19:24;27.10;;;24.15;;
58621;SDS011;44389;51.578;5.456;2023-05-07T02:21:49;26.90;;;24.00;;
58621;SDS011;44389;51.578;5.456;2023-05-07T02:24:16;29.52;;;25.80;;
58621;SDS011;44389;51.578;5.456;2023-05-07T02:26:41;27.73;;;24.67;;
58621;SDS011;44389;51.578;5.456;2023-05-07T02:29:06;28.63;;;25.80;;
58621;SDS011;44389;51.578;5.456;2023-05-07T02:31:31;28.52;;;25.45;;
58621;SDS011;44389;51.578;5.456;2023-05-07T02:33:58;30.63;;;27.17;;
58621;SDS011;44389;51.578;5.456;2023-05-07T02:36:24;28.90;;;26.00;;
58621;SDS011;44389;51.578;5.456;2023-05-07T02:38:49;29.85;;;26.52;;
58621;SDS011;44389;51.578;5.456;2023-05-07T02:41:14;29.15;;;26.08;;
58621;SDS011;44389;51.578;5.456;2023-05-07T02:43:40;31.48;;;27.15;;
58621;SDS011;44389;51.578;5.456;2023-05-07T02:46:06;30.67;;;27.52;;
58621;SDS011;44389;51.578;5.456;2023-05-07T02:48:33;32.78;;;29.30;;
58621;SDS011;44389;51.578;5.456;2023-05-07T02:50:58;33.70;;;30.10;;
58621;SDS011;44389;51.578;5.456;2023-05-07T02:53:25;34.67;;;30.98;;
58621;SDS011;44389;51.578;5.456;2023-05-07T02:55:55;33.70;;;30.10;;
58621;SDS011;44389;51.578;5.456;2023-05-07T02:58:21;33.47;;;30.02;;
58621;SDS011;44389;51.578;5.456;2023-05-07T03:00:47;33.60;;;29.95;;
58621;SDS011;44389;51.578;5.456;2023-05-07T03:03:12;34.17;;;30.73;;
58621;SDS011;44389;51.578;5.456;2023-05-07T03:05:38;35.40;;;31.45;;
58621;SDS011;44389;51.578;5.456;2023-05-07T03:08:03;37.05;;;33.15;;
58621;SDS011;44389;51.578;5.456;2023-05-07T03:10:29;42.50;;;32.78;;
58621;SDS011;44389;51.578;5.456;2023-05-07T03:12:55;37.67;;;33.13;;
58621;SDS011;44389;51.578;5.456;2023-05-07T03:15:20;39.50;;;33.47;;
58621;SDS011;44389;51.578;5.456;2023-05-07T03:17:46;39.20;;;34.38;;
58621;SDS011;44389;51.578;5.456;2023-05-07T03:20:12;37.33;;;33.55;;
58621;SDS011;44389;51.578;5.456;2023-05-07T03:22:38;39.30;;;35.05;;
58621;SDS011;44389;51.578;5.456;2023-05-07T03:25:03;37.80;;;33.85;;
58621;SDS011;44389;51.578;5.456;2023-05-07T03:27:29;40.40;;;35.15;;
58621;SDS011;44389;51.578;5.456;2023-05-07T03:29:54;39.38;;;35.00;;
58621;SDS011;44389;51.578;5.456;2023-05-07T03:32:20;36.10;;;32.22;;
58621;SDS011;44389;51.578;5.456;2023-05-07T03:34:45;36.67;;;32.90;;
58621;SDS011;44389;51.578;5.456;2023-05-07T03:37:10;38.88;;;33.88;;
58621;SDS011;44389;51.578;5.456;2023-05-07T03:39:36;36.90;;;33.03;;
58621;SDS011;44389;51.578;5.456;2023-05-07T03:42:01;38.80;;;34.63;;
58621;SDS011;44389;51.578;5.456;2023-05-07T03:44:27;39.20;;;35.00;;
58621;SDS011;44389;51.578;5.456;2023-05-07T03:46:52;39.33;;;34.38;;
58621;SDS011;44389;51.578;5.456;2023-05-07T03:49:17;37.67;;;33.55;;
58621;SDS011;44389;51.578;5.456;2023-05-07T03:51:43;41.55;;;36.35;;
58621;SDS011;44389;51.578;5.456;2023-05-07T03:54:08;38.15;;;34.15;;
58621;SDS011;44389;51.578;5.456;2023-05-07T03:56:33;43.22;;;35.25;;
58621;SDS011;44389;51.578;5.456;2023-05-07T03:58:59;39.53;;;35.55;;
58621;SDS011;44389;51.578;5.456;2023-05-07T04:01:25;40.05;;;35.95;;
58621;SDS011;44389;51.578;5.456;2023-05-07T04:03:50;41.08;;;36.70;;
58621;SDS011;44389;51.578;5.456;2023-05-07T04:06:16;40.78;;;36.60;;
58621;SDS011;44389;51.578;5.456;2023-05-07T04:08:42;39.03;;;34.83;;
58621;SDS011;44389;51.578;5.456;2023-05-07T04:11:07;39.45;;;35.25;;
58621;SDS011;44389;51.578;5.456;2023-05-07T04:13:33;41.50;;;36.97;;
58621;SDS011;44389;51.578;5.456;2023-05-07T04:15:58;39.63;;;35.47;;
58621;SDS011;44389;51.578;5.456;2023-05-07T04:18:23;43.30;;;38.80;;
58621;SDS011;44389;51.578;5.456;2023-05-07T04:20:49;45.15;;;40.17;;
58621;SDS011;44389;51.578;5.456;2023-05-07T04:23:14;45.92;;;41.03;;
58621;SDS011;44389;51.578;5.456;2023-05-07T04:25:40;47.67;;;42.03;;
58621;SDS011;44389;51.578;5.456;2023-05-07T04:28:06;45.67;;;40.60;;
58621;SDS011;44389;51.578;5.456;2023-05-07T04:30:31;45.78;;;40.88;;
58621;SDS011;44389;51.578;5.456;2023-05-07T04:32:57;45.80;;;40.90;;
58621;SDS011;44389;51.578;5.456;2023-05-07T04:35:22;48.42;;;43.33;;
58621;SDS011;44389;51.578;5.456;2023-05-07T04:37:47;48.75;;;42.75;;
58621;SDS011;44389;51.578;5.456;2023-05-07T04:40:13;46.78;;;41.88;;
58621;SDS011;44389;51.578;5.456;2023-05-07T04:42:38;46.42;;;41.47;;
58621;SDS011;44389;51.578;5.456;2023-05-07T04:45:03;47.80;;;42.35;;
58621;SDS011;44389;51.578;5.456;2023-05-07T04:47:30;48.45;;;43.30;;
58621;SDS011;44389;51.578;5.456;2023-05-07T04:49:55;47.60;;;42.47;;
58621;SDS011;44389;51.578;5.456;2023-05-07T04:52:20;50.13;;;43.65;;
58621;SDS011;44389;51.578;5.456;2023-05-07T04:54:46;50.22;;;44.92;;
58621;SDS011;44389;51.578;5.456;2023-05-07T04:57:11;48.90;;;43.70;;
58621;SDS011;44389;51.578;5.456;2023-05-07T04:59:36;50.85;;;43.55;;
58621;SDS011;44389;51.578;5.456;2023-05-07T05:02:02;49.22;;;43.90;;
58621;SDS011;44389;51.578;5.456;2023-05-07T05:04:29;51.05;;;45.50;;
58621;SDS011;44389;51.578;5.456;2023-05-07T05:06:54;50.95;;;45.47;;
58621;SDS011;44389;51.578;5.456;2023-05-07T05:09:19;52.75;;;47.03;;
58621;SDS011;44389;51.578;5.456;2023-05-07T05:11:45;54.75;;;48.42;;
58621;SDS011;44389;51.578;5.456;2023-05-07T05:14:10;54.75;;;48.80;;
58621;SDS011;44389;51.578;5.456;2023-05-07T05:16:35;54.42;;;48.80;;
58621;SDS011;44389;51.578;5.456;2023-05-07T05:19:01;54.17;;;48.22;;
58621;SDS011;44389;51.578;5.456;2023-05-07T05:21:27;56.70;;;50.58;;
58621;SDS011;44389;51.578;5.456;2023-05-07T05:23:52;58.85;;;51.60;;
58621;SDS011;44389;51.578;5.456;2023-05-07T05:26:18;59.85;;;51.42;;
58621;SDS011;44389;51.578;5.456;2023-05-07T05:28:43;55.95;;;50.05;;
58621;SDS011;44389;51.578;5.456;2023-05-07T05:31:09;55.00;;;49.10;;
58621;SDS011;44389;51.578;5.456;2023-05-07T05:33:35;52.80;;;47.22;;
58621;SDS011;44389;51.578;5.456;2023-05-07T05:36:00;48.80;;;43.75;;
58621;SDS011;44389;51.578;5.456;2023-05-07T05:38:25;44.10;;;39.50;;
58621;SDS011;44389;51.578;5.456;2023-05-07T05:40:51;45.00;;;40.40;;
58621;SDS011;44389;51.578;5.456;2023-05-07T05:43:16;44.17;;;39.42;;
58621;SDS011;44389;51.578;5.456;2023-05-07T05:45:41;42.08;;;37.63;;
58621;SDS011;44389;51.578;5.456;2023-05-07T05:48:07;44.85;;;40.05;;
58621;SDS011;44389;51.578;5.456;2023-05-07T05:50:33;42.25;;;37.92;;
58621;SDS011;44389;51.578;5.456;2023-05-07T05:53:00;42.13;;;36.92;;
58621;SDS011;44389;51.578;5.456;2023-05-07T05:55:26;42.13;;;37.75;;
58621;SDS011;44389;51.578;5.456;2023-05-07T05:57:51;42.63;;;38.08;;
58621;SDS011;44389;51.578;5.456;2023-05-07T06:00:17;40.67;;;36.42;;
58621;SDS011;44389;51.578;5.456;2023-05-07T06:02:42;41.30;;;37.08;;
58621;SDS011;44389;51.578;5.456;2023-05-07T06:05:08;38.08;;;33.95;;
58621;SDS011;44389;51.578;5.456;2023-05-07T06:07:33;35.75;;;32.22;;
58621;SDS011;44389;51.578;5.456;2023-05-07T06:09:59;37.10;;;33.10;;
58621;SDS011;44389;51.578;5.456;2023-05-07T06:12:25;36.63;;;32.85;;
58621;SDS011;44389;51.578;5.456;2023-05-07T06:14:50;36.20;;;32.47;;
58621;SDS011;44389;51.578;5.456;2023-05-07T06:17:15;34.67;;;31.02;;
58621;SDS011;44389;51.578;5.456;2023-05-07T06:19:41;34.72;;;31.15;;
58621;SDS011;44389;51.578;5.456;2023-05-07T06:22:06;34.40;;;30.83;;
58621;SDS011;44389;51.578;5.456;2023-05-07T06:24:32;34.03;;;30.52;;
58621;SDS011;44389;51.578;5.456;2023-05-07T06:26:57;34.08;;;30.45;;
58621;SDS011;44389;51.578;5.456;2023-05-07T06:29:23;31.95;;;28.65;;
58621;SDS011;44389;51.578;5.456;2023-05-07T06:31:50;33.88;;;29.38;;
58621;SDS011;44389;51.578;5.456;2023-05-07T06:34:17;30.52;;;27.52;;
58621;SDS011;44389;51.578;5.456;2023-05-07T06:36:42;31.88;;;28.60;;
58621;SDS011;44389;51.578;5.456;2023-05-07T06:39:07;32.78;;;29.27;;
58621;SDS011;44389;51.578;5.456;2023-05-07T06:41:33;31.80;;;28.58;;
58621;SDS011;44389;51.578;5.456;2023-05-07T06:43:59;31.38;;;28.20;;
58621;SDS011;44389;51.578;5.456;2023-05-07T06:46:24;32.33;;;28.75;;
58621;SDS011;44389;51.578;5.456;2023-05-07T06:48:50;32.45;;;28.75;;
58621;SDS011;44389;51.578;5.456;2023-05-07T06:51:15;31.70;;;27.75;;
58621;SDS011;44389;51.578;5.456;2023-05-07T06:53:41;29.88;;;26.90;;
58621;SDS011;44389;51.578;5.456;2023-05-07T06:56:06;29.35;;;26.40;;
58621;SDS011;44389;51.578;5.456;2023-05-07T06:58:31;28.38;;;25.38;;
58621;SDS011;44389;51.578;5.456;2023-05-07T07:00:57;30.42;;;26.95;;
58621;SDS011;44389;51.578;5.456;2023-05-07T07:03:22;30.67;;;27.35;;
58621;SDS011;44389;51.578;5.456;2023-05-07T07:05:47;29.30;;;26.35;;
58621;SDS011;44389;51.578;5.456;2023-05-07T07:08:16;31.95;;;28.55;;
58621;SDS011;44389;51.578;5.456;2023-05-07T07:10:42;30.50;;;27.27;;
58621;SDS011;44389;51.578;5.456;2023-05-07T07:13:08;30.48;;;27.25;;
58621;SDS011;44389;51.578;5.456;2023-05-07T07:15:33;30.08;;;26.88;;
58621;SDS011;44389;51.578;5.456;2023-05-07T07:17:58;29.98;;;26.83;;
58621;SDS011;44389;51.578;5.456;2023-05-07T07:20:24;30.13;;;27.10;;
58621;SDS011;44389;51.578;5.456;2023-05-07T07:22:49;30.23;;;27.25;;
58621;SDS011;44389;51.578;5.456;2023-05-07T07:25:14;30.73;;;27.65;;
58621;SDS011;44389;51.578;5.456;2023-05-07T07:27:39;30.27;;;26.98;;
58621;SDS011;44389;51.578;5.456;2023-05-07T07:30:05;28.92;;;25.98;;
58621;SDS011;44389;51.578;5.456;2023-05-07T07:32:31;30.92;;;27.83;;
58621;SDS011;44389;51.578;5.456;2023-05-07T07:34:58;32.10;;;28.90;;
58621;SDS011;44389;51.578;5.456;2023-05-07T07:37:23;30.52;;;27.08;;
58621;SDS011;44389;51.578;5.456;2023-05-07T07:39:50;30.47;;;27.43;;
58621;SDS011;44389;51.578;5.456;2023-05-07T07:42:15;30.85;;;27.73;;
58621;SDS011;44389;51.578;5.456;2023-05-07T07:44:41;31.00;;;27.80;;
58621;SDS011;44389;51.578;5.456;2023-05-07T07:47:06;29.35;;;26.42;;
58621;SDS011;44389;51.578;5.456;2023-05-07T07:49:31;29.48;;;26.48;;
58621;SDS011;44389;51.578;5.456;2023-05-07T07:51:56;29.00;;;26.10;;
58621;SDS011;44389;51.578;5.456;2023-05-07T07:54:24;28.40;;;25.48;;
58621;SDS011;44389;51.578;5.456;2023-05-07T07:56:49;28.48;;;25.65;;
58621;SDS011;44389;51.578;5.456;2023-05-07T07:59:15;27.55;;;24.73;;
58621;SDS011;44389;51.578;5.456;2023-05-07T08:01:43;27.02;;;24.42;;
58621;SDS011;44389;51.578;5.456;2023-05-07T08:04:09;27.10;;;24.30;;
58621;SDS011;44389;51.578;5.456;2023-05-07T08:06:35;28.77;;;24.75;;
58621;SDS011;44389;51.578;5.456;2023-05-07T08:09:00;27.75;;;24.33;;
58621;SDS011;44389;51.578;5.456;2023-05-07T08:11:25;27.45;;;24.65;;
58621;SDS011;44389;51.578;5.456;2023-05-07T08:13:51;26.20;;;23.27;;
58621;SDS011;44389;51.578;5.456;2023-05-07T08:16:16;25.58;;;22.98;;
58621;SDS011;44389;51.578;5.456;2023-05-07T08:18:41;25.38;;;22.38;;
58621;SDS011;44389;51.578;5.456;2023-05-07T08:21:07;25.30;;;21.80;;
58621;SDS011;44389;51.578;5.456;2023-05-07T08:23:32;23.20;;;20.88;;
58621;SDS011;44389;51.578;5.456;2023-05-07T08:25:59;22.43;;;20.23;;
58621;SDS011;44389;51.578;5.456;2023-05-07T08:28:25;23.45;;;21.15;;
58621;SDS011;44389;51.578;5.456;2023-05-07T08:30:50;22.23;;;20.05;;
58621;SDS011;44389;51.578;5.456;2023-05-07T08:33:15;21.33;;;18.88;;
58621;SDS011;44389;51.578;5.456;2023-05-07T08:35:41;20.90;;;18.70;;
58621;SDS011;44389;51.578;5.456;2023-05-07T08:38:06;21.95;;;19.73;;
58621;SDS011;44389;51.578;5.456;2023-05-07T08:40:34;20.17;;;18.27;;
58621;SDS011;44389;51.578;5.456;2023-05-07T08:43:02;20.63;;;18.42;;
58621;SDS011;44389;51.578;5.456;2023-05-07T08:45:30;19.10;;;17.10;;
58621;SDS011;44389;51.578;5.456;2023-05-07T08:50:28;21.38;;;18.75;;
58621;SDS011;44389;51.578;5.456;2023-05-07T08:52:54;19.05;;;17.08;;
58621;SDS011;44389;51.578;5.456;2023-05-07T08:55:22;19.35;;;17.45;;
58621;SDS011;44389;51.578;5.456;2023-05-07T08:57:48;19.83;;;17.67;;
58621;SDS011;44389;51.578;5.456;2023-05-07T09:00:14;18.02;;;16.27;;
58621;SDS011;44389;51.578;5.456;2023-05-07T09:02:39;18.75;;;16.85;;
58621;SDS011;44389;51.578;5.456;2023-05-07T09:05:05;18.17;;;16.33;;
58621;SDS011;44389;51.578;5.456;2023-05-07T09:07:31;18.98;;;16.85;;
58621;SDS011;44389;51.578;5.456;2023-05-07T09:09:56;21.42;;;16.10;;
58621;SDS011;44389;51.578;5.456;2023-05-07T09:12:22;18.88;;;16.90;;
58621;SDS011;44389;51.578;5.456;2023-05-07T09:14:48;18.15;;;16.23;;
58621;SDS011;44389;51.578;5.456;2023-05-07T09:17:17;21.40;;;17.42;;
58621;SDS011;44389;51.578;5.456;2023-05-07T09:19:43;18.52;;;16.63;;
58621;SDS011;44389;51.578;5.456;2023-05-07T09:22:10;17.90;;;16.13;;
58621;SDS011;44389;51.578;5.456;2023-05-07T09:24:36;18.75;;;16.85;;
58621;SDS011;44389;51.578;5.456;2023-05-07T09:27:06;17.13;;;15.43;;
58621;SDS011;44389;51.578;5.456;2023-05-07T09:29:33;17.52;;;15.40;;
58621;SDS011;44389;51.578;5.456;2023-05-07T09:32:02;17.95;;;16.15;;
58621;SDS011;44389;51.578;5.456;2023-05-07T09:34:29;19.75;;;16.30;;
58621;SDS011;44389;51.578;5.456;2023-05-07T09:36:55;17.52;;;15.50;;
58621;SDS011;44389;51.578;5.456;2023-05-07T09:39:21;15.63;;;14.13;;
58621;SDS011;44389;51.578;5.456;2023-05-07T09:41:48;17.35;;;15.63;;
58621;SDS011;44389;51.578;5.456;2023-05-07T09:44:14;18.15;;;15.35;;
58621;SDS011;44389;51.578;5.456;2023-05-07T09:46:41;17.58;;;15.57;;
58621;SDS011;44389;51.578;5.456;2023-05-07T09:49:11;18.17;;;16.27;;
58621;SDS011;44389;51.578;5.456;2023-05-07T09:51:43;17.42;;;15.57;;
58621;SDS011;44389;51.578;5.456;2023-05-07T09:54:13;17.00;;;15.30;;
58621;SDS011;44389;51.578;5.456;2023-05-07T09:56:38;16.98;;;15.27;;
58621;SDS011;44389;51.578;5.456;2023-05-07T10:01:32;17.00;;;15.20;;
58621;SDS011;44389;51.578;5.456;2023-05-07T10:04:01;17.45;;;15.40;;
58621;SDS011;44389;51.578;5.456;2023-05-07T10:06:27;17.15;;;15.38;;
58621;SDS011;44389;51.578;5.456;2023-05-07T10:08:53;18.15;;;16.15;;
58621;SDS011;44389;51.578;5.456;2023-05-07T10:11:20;17.05;;;15.23;;
58621;SDS011;44389;51.578;5.456;2023-05-07T10:13:47;16.93;;;14.90;;
58621;SDS011;44389;51.578;5.456;2023-05-07T10:16:13;16.48;;;14.15;;
58621;SDS011;44389;51.578;5.456;2023-05-07T10:18:40;15.38;;;13.70;;
58621;SDS011;44389;51.578;5.456;2023-05-07T10:21:15;14.83;;;13.13;;
58621;SDS011;44389;51.578;5.456;2023-05-07T10:23:44;15.23;;;12.90;;
58621;SDS011;44389;51.578;5.456;2023-05-07T10:26:13;14.32;;;12.82;;
58621;SDS011;44389;51.578;5.456;2023-05-07T10:28:41;17.90;;;13.88;;
58621;SDS011;44389;51.578;5.456;2023-05-07T10:34:08;15.63;;;14.02;;
58621;SDS011;44389;51.578;5.456;2023-05-07T10:36:36;16.83;;;14.85;;
58621;SDS011;44389;51.578;5.456;2023-05-07T10:39:01;15.85;;;14.18;;
58621;SDS011;44389;51.578;5.456;2023-05-07T10:41:27;15.88;;;14.20;;
58621;SDS011;44389;51.578;5.456;2023-05-07T10:43:53;15.50;;;13.90;;
58621;SDS011;44389;51.578;5.456;2023-05-07T10:46:19;16.45;;;13.95;;
58621;SDS011;44389;51.578;5.456;2023-05-07T10:51:27;17.60;;;14.82;;
58621;SDS011;44389;51.578;5.456;2023-05-07T10:54:40;15.85;;;14.20;;
58621;SDS011;44389;51.578;5.456;2023-05-07T10:56:44;15.75;;;14.02;;
58621;SDS011;44389;51.578;5.456;2023-05-07T11:01:56;16.10;;;14.40;;
58621;SDS011;44389;51.578;5.456;2023-05-07T11:04:27;16.17;;;14.55;;
58621;SDS011;44389;51.578;5.456;2023-05-07T11:12:18;15.93;;;14.32;;
58621;SDS011;44389;51.578;5.456;2023-05-07T11:15:09;14.50;;;12.98;;
58621;SDS011;44389;51.578;5.456;2023-05-07T11:17:51;16.23;;;13.80;;
58621;SDS011;44389;51.578;5.456;2023-05-07T11:25:59;13.45;;;11.20;;
58621;SDS011;44389;51.578;5.456;2023-05-07T11:28:30;13.18;;;11.23;;
58621;SDS011;44389;51.578;5.456;2023-05-07T11:30:56;12.90;;;10.20;;
58621;SDS011;44389;51.578;5.456;2023-05-07T11:33:23;12.05;;;10.77;;
58621;SDS011;44389;51.578;5.456;2023-05-07T11:35:50;16.17;;;11.55;;
58621;SDS011;44389;51.578;5.456;2023-05-07T11:38:18;13.00;;;11.43;;
58621;SDS011;44389;51.578;5.456;2023-05-07T11:40:53;12.63;;;11.32;;
58621;SDS011;44389;51.578;5.456;2023-05-07T11:43:21;14.25;;;12.57;;
58621;SDS011;44389;51.578;5.456;2023-05-07T11:45:47;11.48;;;10.18;;
58621;SDS011;44389;51.578;5.456;2023-05-07T11:48:14;13.57;;;10.23;;
58621;SDS011;44389;51.578;5.456;2023-05-07T11:50:53;13.47;;;11.10;;
58621;SDS011;44389;51.578;5.456;2023-05-07T11:53:25;13.27;;;10.73;;
58621;SDS011;44389;51.578;5.456;2023-05-07T11:55:57;12.83;;;10.23;;
58621;SDS011;44389;51.578;5.456;2023-05-07T11:58:24;12.02;;;9.43;;
58621;SDS011;44389;51.578;5.456;2023-05-07T12:00:53;9.82;;;7.70;;
58621;SDS011;44389;51.578;5.456;2023-05-07T12:03:19;13.35;;;8.48;;
58621;SDS011;44389;51.578;5.456;2023-05-07T12:05:45;11.27;;;9.43;;
58621;SDS011;44389;51.578;5.456;2023-05-07T12:08:15;10.52;;;7.60;;
58621;SDS011;44389;51.578;5.456;2023-05-07T12:10:41;11.90;;;9.60;;
58621;SDS011;44389;51.578;5.456;2023-05-07T12:13:16;11.68;;;8.75;;
58621;SDS011;44389;51.578;5.456;2023-05-07T12:15:43;13.00;;;10.07;;
58621;SDS011;44389;51.578;5.456;2023-05-07T12:18:09;9.70;;;7.85;;
58621;SDS011;44389;51.578;5.456;2023-05-07T12:20:36;11.75;;;8.05;;
58621;SDS011;44389;51.578;5.456;2023-05-07T12:23:02;15.07;;;9.02;;
58621;SDS011;44389;51.578;5.456;2023-05-07T12:25:46;11.40;;;8.63;;
58621;SDS011;44389;51.578;5.456;2023-05-07T12:28:18;11.63;;;8.52;;
58621;SDS011;44389;51.578;5.456;2023-05-07T12:30:45;9.73;;;7.38;;
58621;SDS011;44389;51.578;5.456;2023-05-07T12:35:40;10.63;;;8.93;;
58621;SDS011;44389;51.578;5.456;2023-05-07T12:38:09;12.32;;;8.60;;
58621;SDS011;44389;51.578;5.456;2023-05-07T12:40:37;13.13;;;9.80;;
58621;SDS011;44389;51.578;5.456;2023-05-07T12:43:04;10.18;;;8.45;;
58621;SDS011;44389;51.578;5.456;2023-05-07T12:45:29;12.98;;;8.75;;
58621;SDS011;44389;51.578;5.456;2023-05-07T12:47:54;9.30;;;7.57;;
58621;SDS011;44389;51.578;5.456;2023-05-07T12:50:20;10.35;;;7.40;;
58621;SDS011;44389;51.578;5.456;2023-05-07T12:52:48;9.52;;;7.35;;
58621;SDS011;44389;51.578;5.456;2023-05-07T12:55:14;10.52;;;8.00;;
58621;SDS011;44389;51.578;5.456;2023-05-07T12:57:41;10.43;;;8.25;;
58621;SDS011;44389;51.578;5.456;2023-05-07T13:00:08;11.10;;;5.45;;
58621;SDS011;44389;51.578;5.456;2023-05-07T13:02:37;3.55;;;2.10;;
58621;SDS011;44389;51.578;5.456;2023-05-07T13:05:03;3.42;;;1.70;;
58621;SDS011;44389;51.578;5.456;2023-05-07T13:07:29;4.25;;;2.00;;
58621;SDS011;44389;51.578;5.456;2023-05-07T13:09:54;5.05;;;2.42;;
58621;SDS011;44389;51.578;5.456;2023-05-07T13:12:19;7.85;;;3.60;;
58621;SDS011;44389;51.578;5.456;2023-05-07T13:14:45;6.10;;;3.85;;
58621;SDS011;44389;51.578;5.456;2023-05-07T13:17:10;7.35;;;4.10;;
58621;SDS011;44389;51.578;5.456;2023-05-07T13:19:36;7.00;;;4.53;;
58621;SDS011;44389;51.578;5.456;2023-05-07T13:22:02;9.88;;;4.78;;
58621;SDS011;44389;51.578;5.456;2023-05-07T13:24:28;11.75;;;6.93;;
58621;SDS011;44389;51.578;5.456;2023-05-07T13:26:53;16.42;;;7.75;;
58621;SDS011;44389;51.578;5.456;2023-05-07T13:29:18;10.40;;;6.90;;
58621;SDS011;44389;51.578;5.456;2023-05-07T13:31:44;13.63;;;6.50;;
58621;SDS011;44389;51.578;5.456;2023-05-07T13:34:09;12.77;;;6.10;;
58621;SDS011;44389;51.578;5.456;2023-05-07T13:36:35;11.15;;;6.28;;
58621;SDS011;44389;51.578;5.456;2023-05-07T13:39:02;17.00;;;9.85;;
58621;SDS011;44389;51.578;5.456;2023-05-07T13:41:28;14.48;;;9.30;;
58621;SDS011;44389;51.578;5.456;2023-05-07T13:43:54;18.83;;;11.55;;
58621;SDS011;44389;51.578;5.456;2023-05-07T13:46:19;15.57;;;12.52;;
58621;SDS011;44389;51.578;5.456;2023-05-07T13:48:45;16.02;;;13.30;;
58621;SDS011;44389;51.578;5.456;2023-05-07T13:51:10;16.90;;;12.98;;
58621;SDS011;44389;51.578;5.456;2023-05-07T13:53:35;15.82;;;13.35;;
58621;SDS011;44389;51.578;5.456;2023-05-07T13:56:01;15.07;;;12.50;;
58621;SDS011;44389;51.578;5.456;2023-05-07T13:58:29;16.02;;;13.88;;
58621;SDS011;44389;51.578;5.456;2023-05-07T14:00:54;18.13;;;14.65;;
58621;SDS011;44389;51.578;5.456;2023-05-07T14:03:20;19.65;;;16.88;;
58621;SDS011;44389;51.578;5.456;2023-05-07T14:05:45;18.17;;;15.95;;
58621;SDS011;44389;51.578;5.456;2023-05-07T14:08:10;21.13;;;14.80;;
58621;SDS011;44389;51.578;5.456;2023-05-07T14:10:37;17.73;;;15.55;;
58621;SDS011;44389;51.578;5.456;2023-05-07T14:13:02;18.40;;;16.50;;
58621;SDS011;44389;51.578;5.456;2023-05-07T14:15:28;18.73;;;15.85;;
58621;SDS011;44389;51.578;5.456;2023-05-07T14:17:53;13.45;;;12.05;;
58621;SDS011;44389;51.578;5.456;2023-05-07T14:20:18;17.95;;;11.75;;
58621;SDS011;44389;51.578;5.456;2023-05-07T14:22:44;18.23;;;13.13;;
58621;SDS011;44389;51.578;5.456;2023-05-07T14:25:10;18.52;;;13.00;;
58621;SDS011;44389;51.578;5.456;2023-05-07T14:27:35;18.00;;;13.55;;
58621;SDS011;44389;51.578;5.456;2023-05-07T14:30:00;15.68;;;12.70;;
58621;SDS011;44389;51.578;5.456;2023-05-07T14:32:26;14.73;;;12.38;;
58621;SDS011;44389;51.578;5.456;2023-05-07T14:34:51;15.75;;;13.07;;
58621;SDS011;44389;51.578;5.456;2023-05-07T14:37:16;16.70;;;13.55;;
58621;SDS011;44389;51.578;5.456;2023-05-07T14:39:43;19.85;;;15.40;;
58621;SDS011;44389;51.578;5.456;2023-05-07T14:42:08;19.70;;;17.02;;
58621;SDS011;44389;51.578;5.456;2023-05-07T14:44:34;17.98;;;15.73;;